Time;durP1;ratioP1;P1;durP2;ratioP2;P2;SDS_P1;SDS_P2;PMS_P1;PMS_P2;Temp;Humidity;BMP_temperature;BMP_pressure;BME280_temperature;BME280_humidity;BME280_pressure;Samples;Min_cycle;Max_cycle;Signal;HPM_P1;HPM_P2
2022/04/07 00:04:39;;;;;;;2.90;1.20;;;;;;;;;;20755939;28;20056;-64
2022/04/07 00:14:41;;;;;;;3.03;1.45;;;13.80;48.90;;;;;;20755838;28;20459;-62
2022/04/07 00:24:43;;;;;;;2.78;1.60;;;;;;;;;;20755052;28;20491;-63
2022/04/07 00:34:46;;;;;;;2.65;1.33;;;;;;;;;;20753591;28;20046;-61
2022/04/07 00:44:48;;;;;;;5.78;1.88;;;;;;;;;;20752382;28;20085;-63
2022/04/07 00:54:50;;;;;;;2.78;1.65;;;;;;;;;;20752461;28;20054;-62
2022/04/07 01:04:52;;;;;;;3.30;1.67;;;;;;;;;;20751466;28;20047;-62
2022/04/07 01:14:55;;;;;;;2.80;1.50;;;;;;;;;;20751945;28;20049;-63
2022/04/07 01:24:58;;;;;;;4.30;2.30;;;;;;;;;;20751369;28;20049;-63
2022/04/07 01:35:01;;;;;;;3.90;2.00;;;;;;;;;;20749394;28;20503;-61
2022/04/07 01:45:06;;;;;;;4.15;2.22;;;;;;;;;;20748153;28;20049;-65
2022/04/07 01:55:09;;;;;;;3.90;1.73;;;;;;;;;;20747511;28;20061;-63
2022/04/07 02:05:14;;;;;;;4.82;1.67;;;;;;;;;;20746188;28;20054;-63
2022/04/07 02:15:17;;;;;;;7.30;2.42;;;;;;;;;;20747275;28;20056;-61
2022/04/07 02:25:27;;;;;;;6.90;2.20;;;;;;;;;;20747361;28;20050;-64
2022/04/07 02:35:50;;;;;;;3.53;1.52;;;;;;;;;;20745738;28;20049;-65
2022/04/07 02:46:00;;;;;;;3.42;1.75;;;;;;;;;;20754283;28;20053;-62
2022/04/07 02:56:05;;;;;;;3.00;1.50;;;;;;;;;;20760100;28;20050;-61
2022/04/07 03:06:09;;;;;;;3.63;1.52;;;;;;;;;;20759220;28;20502;-62
2022/04/07 03:16:16;;;;;;;3.53;1.67;;;;;;;;;;20758423;28;20057;-63
2022/04/07 03:26:19;;;;;;;5.38;1.90;;;;;;;;;;20758042;28;20053;-60
2022/04/07 03:36:22;;;;;;;3.38;1.70;;;;;;;;;;20756861;28;20480;-61
2022/04/07 03:46:25;;;;;;;3.75;1.60;;;;;;;;;;20755887;28;20057;-62
2022/04/07 03:56:28;;;;;;;3.53;1.70;;;;;;;;;;20755832;28;20435;-63
2022/04/07 04:06:30;;;;;;;4.80;1.70;;;;;;;;;;20754812;28;20100;-64
2022/04/07 04:16:34;;;;;;;4.25;2.08;;;;;;;;;;20764250;28;20057;-62
2022/04/07 04:26:40;;;;;;;4.22;2.20;;;;;;;;;;20752916;28;20085;-62
2022/04/07 04:36:43;;;;;;;3.80;2.33;;;;;;;;;;20752668;28;20484;-65
2022/04/07 04:46:45;;;;;;;6.68;2.08;;;;;;;;;;20750472;28;20054;-64
2022/04/07 04:56:47;;;;;;;5.72;2.20;;;;;;;;;;20751668;28;20046;-63
2022/04/07 05:06:49;;;;;;;5.95;2.50;;;11.70;58.30;;;;;;20749254;28;20407;-62
2022/04/07 05:16:51;;;;;;;9.13;3.13;;;11.20;59.30;;;;;;20749231;28;20054;-62
2022/04/07 05:26:53;;;;;;;8.93;3.38;;;;;;;;;;20749305;28;20484;-62
2022/04/07 05:36:55;;;;;;;5.50;2.75;;;;;;;;;;20748708;28;20050;-60
2022/04/07 05:46:57;;;;;;;7.68;3.40;;;;;;;;;;20746023;28;20054;-60
2022/04/07 05:56:59;;;;;;;9.77;4.30;;;;;;;;;;20748138;28;20055;-59
2022/04/07 06:07:01;;;;;;;9.13;3.58;;;;;;;;;;20747252;28;20050;-65
2022/04/07 06:17:04;;;;;;;8.88;3.05;;;;;;;;;;20749175;28;20089;-61
2022/04/07 06:27:06;;;;;;;9.20;3.70;;;;;;;;;;20763455;28;20170;-60
2022/04/07 06:37:08;;;;;;;9.63;3.63;;;;;;;;;;20761154;28;20057;-63
2022/04/07 06:47:10;;;;;;;11.80;4.55;;;;;;;;;;20761194;28;20376;-61
2022/04/07 06:57:12;;;;;;;8.82;3.75;;;;;;;;;;20759831;28;20129;-61
2022/04/07 07:07:16;;;;;;;12.00;3.90;;;;;;;;;;20762540;28;20049;-60
2022/04/07 07:17:19;;;;;;;15.82;4.45;;;;;;;;;;20759918;28;20068;-62
2022/04/07 07:27:21;;;;;;;8.30;3.83;;;;;;;;;;20757397;28;20054;-61
2022/04/07 07:37:23;;;;;;;11.38;3.65;;;;;;;;;;20757523;28;20108;-64
2022/04/07 07:47:25;;;;;;;10.20;4.15;;;;;;;;;;20753840;28;20054;-61
2022/04/07 07:57:30;;;;;;;6.75;3.70;;;;;;;;;;20755509;28;20129;-65
2022/04/07 08:07:38;;;;;;;9.45;3.63;;;;;;;;;;20755037;28;20551;-61
2022/04/07 08:17:40;;;;;;;8.93;4.40;;;;;;;;;;20754529;28;20486;-60
2022/04/07 08:27:45;;;;;;;8.52;4.25;;;;;;;;;;20753636;28;20050;-65
2022/04/07 08:37:47;;;;;;;10.95;5.20;;;;;;;;;;20752461;28;20053;-61
2022/04/07 08:47:49;;;;;;;12.05;3.92;;;;;;;;;;20753714;28;20509;-59
2022/04/07 08:57:51;;;;;;;7.65;3.40;;;;;;;;;;20752800;28;20046;-61
2022/04/07 09:07:55;;;;;;;7.97;2.75;;;16.40;51.60;;;;;;20751369;28;20073;-62
2022/04/07 09:18:00;;;;;;;6.15;2.88;;;;;;;;;;20751132;28;20432;-63
2022/04/07 09:28:03;;;;;;;4.40;2.40;;;;;;;;;;20750241;28;20050;-62
2022/04/07 09:38:05;;;;;;;8.43;2.92;;;;;;;;;;20749731;28;20049;-61
2022/04/07 09:48:08;;;;;;;6.13;3.25;;;;;;;;;;20748785;28;20057;-62
2022/04/07 09:58:12;;;;;;;4.82;2.17;;;;;;;;;;20748275;28;20436;-64
2022/04/07 10:08:16;;;;;;;7.28;2.28;;;;;;;;;;20746758;28;20045;-62
2022/04/07 10:18:23;;;;;;;3.95;1.60;;;;;;;;;;20747664;28;20050;-57
2022/04/07 10:28:25;;;;;;;3.05;1.77;;;;;;;;;;20747559;28;20423;-63
2022/04/07 10:38:37;;;;;;;7.63;4.30;;;;;;;;;;20746760;28;20053;-60
2022/04/07 10:49:00;;;;;;;5.93;1.50;;;18.30;45.80;;;;;;20739359;28;20068;-61
2022/04/07 10:59:08;;;;;;;9.00;1.88;;;;;;;;;;20733877;28;20384;-61
2022/04/07 11:09:17;;;;;;;4.50;1.30;;;;;;;;;;20735090;28;20519;-64
2022/04/07 11:19:19;;;;;;;;;;;;;;;;;;20712998;28;20046;-60
2022/04/07 11:29:32;;;;;;;3.55;1.20;;;;;;;;;;20757734;28;19922;-68
2022/04/07 11:39:34;;;;;;;4.70;2.40;;;;;;;;;;20757104;28;20562;-69
2022/04/07 11:49:36;;;;;;;5.43;0.98;;;;;;;;;;20758485;28;20050;-57
2022/04/07 11:59:38;;;;;;;4.10;1.17;;;;;;;;;;20755003;28;20057;-61
2022/04/07 12:09:40;;;;;;;4.43;1.00;;;20.80;38.10;;;;;;20754815;28;20042;-62
2022/04/07 12:19:43;;;;;;;1.65;0.93;;;;;;;;;;20753734;28;20089;-60
2022/04/07 12:29:47;;;;;;;2.28;1.20;;;20.20;39.10;;;;;;20752611;28;20057;-63
2022/04/07 12:39:49;;;;;;;1.42;1.10;;;19.70;41.10;;;;;;20752673;28;20492;-61
2022/04/07 12:49:55;;;;;;;2.60;1.25;;;19.80;41.00;;;;;;20783666;28;20544;-61
2022/04/07 12:59:58;;;;;;;3.78;1.15;;;;;;;;;;20750881;28;20108;-60
2022/04/07 13:10:00;;;;;;;2.35;0.73;;;;;;;;;;20781709;28;20054;-60
2022/04/07 13:20:02;;;;;;;2.35;0.68;;;;;;;;;;20750358;28;20050;-61
2022/04/07 13:30:04;;;;;;;0.95;0.68;;;;;;;;;;20747387;28;20089;-60
2022/04/07 13:40:06;;;;;;;3.00;0.98;;;;;;;;;;20748625;28;20058;-60
2022/04/07 13:50:09;;;;;;;2.40;1.00;;;;;;;;;;20746481;28;20136;-60
2022/04/07 14:00:11;;;;;;;3.53;1.15;;;;;;;;;;20746901;28;20455;-63
2022/04/07 14:10:14;;;;;;;5.93;1.13;;;;;;;;;;20746550;28;20053;-59
2022/04/07 14:20:16;;;;;;;2.63;1.42;;;;;;;;;;20746566;28;20057;-60
2022/04/07 14:30:17;;;;;;;1.80;0.98;;;;;;;;;;20746809;28;20092;-58
2022/04/07 14:40:19;;;;;;;2.05;0.50;;;;;;;;;;20754826;28;20050;-58
2022/04/07 14:50:23;;;;;;;1.23;0.60;;;;;;;;;;20762707;28;20085;-58
2022/04/07 15:00:25;;;;;;;2.72;0.90;;;;;;;;;;20759904;28;20050;-61
2022/04/07 15:10:27;;;;;;;1.90;0.60;;;;;;;;;;20791525;28;20385;-59
2022/04/07 15:20:28;;;;;;;2.60;0.90;;;;;;;;;;20759178;28;20042;-60
2022/04/07 15:30:31;;;;;;;2.15;0.90;;;;;;;;;;20757639;28;20053;-63
2022/04/07 15:40:33;;;;;;;0.73;0.57;;;;;;;;;;20786912;28;20045;-64
2022/04/07 15:50:35;;;;;;;3.78;0.65;;;;;;;;;;20754613;28;20061;-62
2022/04/07 16:00:37;;;;;;;2.50;0.60;;;;;;;;;;20754378;28;20049;-63
2022/04/07 16:10:39;;;;;;;4.28;0.63;;;;;;;;;;20754448;28;20137;-65
2022/04/07 16:20:41;;;;;;;1.90;0.60;;;;;;;;;;20754727;28;20057;-64
2022/04/07 16:30:44;;;;;;;2.65;0.88;;;;;;;;;;20752499;28;20068;-63
2022/04/07 16:40:46;;;;;;;1.45;0.50;;;;;;;;;;20750754;28;20050;-63
2022/04/07 16:50:48;;;;;;;3.17;0.85;;;;;;;;;;20751434;28;20050;-65
2022/04/07 17:00:50;;;;;;;2.45;1.10;;;;;;;;;;20751609;28;20045;-67
2022/04/07 17:10:52;;;;;;;3.55;0.80;;;;;;;;;;20751988;28;20119;-64
2022/04/07 17:20:58;;;;;;;2.55;1.10;;;;;;;;;;20752407;28;20480;-65
2022/04/07 17:31:00;;;;;;;6.63;1.45;;;;;;;;;;20751083;28;20103;-65
2022/04/07 17:41:02;;;;;;;1.85;0.77;;;;;;;;;;20749890;28;20412;-63
2022/04/07 17:51:04;;;;;;;5.47;2.38;;;20.10;44.30;;;;;;20748962;28;20096;-63
2022/04/07 18:01:06;;;;;;;2.58;1.23;;;;;;;;;;20748641;28;20096;-62
2022/04/07 18:11:09;;;;;;;3.33;0.85;;;;;;;;;;20748801;28;20112;-64
2022/04/07 18:21:10;;;;;;;2.50;0.90;;;;;;;;;;20764295;28;20532;-62
2022/04/07 18:31:13;;;;;;;2.67;1.10;;;;;;;;;;20763899;28;20053;-62
2022/04/07 18:41:15;;;;;;;4.18;1.30;;;;;;;;;;20761918;28;20479;-63
2022/04/07 18:51:17;;;;;;;2.55;1.20;;;;;;;;;;20761061;28;20058;-63
2022/04/07 19:01:20;;;;;;;3.80;1.30;;;;;;;;;;20761292;28;20042;-61
2022/04/07 19:11:22;;;;;;;4.30;1.50;;;;;;;;;;20760171;28;20093;-62
2022/04/07 19:21:24;;;;;;;3.40;1.58;;;;;;;;;;20760719;28;20053;-63
2022/04/07 19:31:26;;;;;;;5.80;1.50;;;;;;;;;;20758531;28;20045;-64
2022/04/07 19:41:28;;;;;;;3.75;1.20;;;;;;;;;;20759901;28;20081;-63
2022/04/07 19:51:30;;;;;;;5.57;1.48;;;;;;;;;;20758601;28;20081;-62
2022/04/07 20:01:32;;;;;;;4.03;1.33;;;;;;;;;;20755907;28;20050;-64
2022/04/07 20:11:34;;;;;;;3.50;0.90;;;;;;;;;;20755633;28;20133;-65
2022/04/07 20:21:36;;;;;;;2.55;0.98;;;;;;;;;;20754974;28;20050;-64
2022/04/07 20:31:39;;;;;;;1.73;0.90;;;;;;;;;;20754325;28;20046;-65
2022/04/07 20:41:41;;;;;;;4.25;1.48;;;;;;;;;;20754129;28;20060;-62
2022/04/07 20:51:43;;;;;;;3.42;1.20;;;;;;;;;;20753413;28;20058;-65
2022/04/07 21:01:45;;;;;;;2.00;0.82;;;;;;;;;;20753398;28;20484;-62
2022/04/07 21:11:47;;;;;;;3.13;1.10;;;;;;;;;;20750582;28;20052;-64
2022/04/07 21:21:49;;;;;;;1.83;0.90;;;;;;;;;;20751705;28;20081;-62
2022/04/07 21:31:51;;;;;;;2.40;0.93;;;;;;;;;;20748596;28;20527;-63
2022/04/07 21:41:54;;;;;;;4.35;1.30;;;;;;;;;;20749139;28;20496;-63
2022/04/07 21:51:56;;;;;;;3.05;1.20;;;;;;;;;;20748281;28;20081;-63
2022/04/07 22:01:58;;;;;;;1.52;0.90;;;;;;;;;;20748150;28;20054;-62
2022/04/07 22:12:00;;;;;;;4.90;1.10;;;;;;;;;;20749015;28;20046;-63
2022/04/07 22:22:03;;;;;;;3.95;1.27;;;;;;;;;;20746946;28;20050;-61
2022/04/07 22:32:05;;;;;;;1.98;1.02;;;;;;;;;;20744549;28;20049;-61
2022/04/07 22:42:07;;;;;;;2.92;1.10;;;;;;;;;;20745406;28;20057;-62
2022/04/07 22:52:10;;;;;;;2.97;1.15;;;;;;;;;;20745183;28;20053;-63
2022/04/07 23:02:12;;;;;;;2.85;1.08;;;;;;;;;;20754451;28;20102;-62
2022/04/07 23:12:14;;;;;;;1.58;1.00;;;;;;;;;;20759040;28;20054;-61
2022/04/07 23:22:16;;;;;;;3.72;0.95;;;;;;;;;;20758196;28;20085;-63
2022/04/07 23:32:18;;;;;;;2.47;1.60;;;14.60;56.10;;;;;;20757582;28;20053;-63
2022/04/07 23:42:19;;;;;;;3.13;1.17;;;;;;;;;;20757200;28;20050;-61
2022/04/07 23:52:21;;;;;;;2.95;0.90;;;;;;;;;;20755949;28;20100;-61
